Stanley, Colorado
Current Conditions -  °F | °C
As of 5:52 PM on Sunday 23 Nov 2014 (Local Time) from KALS Reporting Station
Clear Clear  
Wind Chill: 12°   Ceiling: Unl
Heat Index: 26°   Visibility: 10mi
Dew Point:   Wind: 20mph
Humidity: 43%   Direction: 330°NNW
Pressure: 29.88"   Gusts: 32mph
Location:  37.469°N, 105.836°W
Report Text: KALS 240052Z AUTO 33017G28KT 10SM CLR M03/M14 A2988 RMK AO2 PK WND 34034/2355 SLP134 T10331144
Loading
Personal Weather Stations






























Interactive Weather Map New forecast layout! Learn more

10-Day Weather Forecast

Advertisements
Track Severe Weather on mobile